Time;durP1;ratioP1;P1;durP2;ratioP2;P2;SDS_P1;SDS_P2;PMS_P1;PMS_P2;Temp;Humidity;BMP_temperature;BMP_pressure;BME280_temperature;BME280_humidity;BME280_pressure;Samples;Min_cycle;Max_cycle;Signal;HPM_P1;HPM_P2
2021/08/22 00:01:04;;;;;;;5.85;5.25;;;;;;;;;;5112068;28;20081;-59
2021/08/22 00:03:29;;;;;;;5.70;5.10;;;;;;;;;;5111516;28;20036;-59
2021/08/22 00:05:54;;;;;;;6.90;5.78;;;;;;;;;;5114597;28;20023;-59
2021/08/22 00:08:20;;;;;;;5.60;5.10;;;;;;;;;;5114895;28;20066;-59
2021/08/22 00:10:45;;;;;;;5.35;4.85;;;;;;;;;;5115615;28;20015;-59
2021/08/22 00:13:10;;;;;;;6.38;4.60;;;;;;;;;;5115491;28;20019;-60
2021/08/22 00:15:35;;;;;;;6.32;5.70;;;;;;;;;;5115568;28;20016;-60
2021/08/22 00:18:01;;;;;;;7.10;5.57;;;;;;;;;;5115257;28;20019;-60
2021/08/22 00:20:26;;;;;;;8.68;7.20;;;;;;;;;;5115733;28;20735;-60
2021/08/22 00:22:51;;;;;;;8.68;6.88;;;;;;;;;;5114688;28;20438;-60
2021/08/22 00:25:16;;;;;;;7.60;6.78;;;;;;;;;;5115390;28;20039;-58
2021/08/22 00:27:41;;;;;;;7.43;6.80;;;;;;;;;;5114709;28;20064;-61
2021/08/22 00:30:07;;;;;;;7.72;7.03;;;;;;;;;;5115425;28;20047;-60
2021/08/22 00:32:32;;;;;;;8.35;7.53;;;;;;;;;;5115251;28;20038;-60
2021/08/22 00:34:57;;;;;;;10.98;9.52;;;;;;;;;;5115159;28;20023;-58
2021/08/22 00:37:26;;;;;;;11.52;10.32;;;;;;;;;;5114748;28;20030;-58
2021/08/22 00:39:51;;;;;;;12.15;10.95;;;;;;;;;;5114777;28;20028;-58
2021/08/22 00:42:16;;;;;;;11.03;9.93;;;;;;;;;;5115040;28;20072;-58
2021/08/22 00:44:41;;;;;;;10.57;9.02;;;;;;;;;;5115118;28;20280;-58
2021/08/22 00:47:07;;;;;;;8.48;7.60;;;;;;;;;;5114899;28;20431;-60
2021/08/22 00:49:32;;;;;;;8.55;7.75;;;;;;;;;;5115022;28;20454;-58
2021/08/22 00:51:58;;;;;;;9.68;8.73;;;;;;;;;;5096475;28;20023;-58
2021/08/22 00:54:23;;;;;;;9.63;8.38;;;;;;;;;;5114487;28;20035;-59
2021/08/22 00:56:50;;;;;;;8.93;8.02;;;;;;;;;;5114800;28;20051;-58
2021/08/22 00:59:16;;;;;;;7.00;6.38;;;;;;;;;;5114591;28;20039;-59
2021/08/22 01:01:44;;;;;;;8.88;6.90;;;;;;;;;;5114555;28;20049;-59
2021/08/22 01:04:17;;;;;;;7.20;6.50;;;;;;;;;;5114744;28;20024;-59
2021/08/22 01:07:01;;;;;;;6.10;5.47;;;;;;;;;;5114811;28;20024;-59
2021/08/22 01:09:38;;;;;;;6.35;5.68;;;;;;;;;;5114319;28;20458;-59
2021/08/22 01:12:06;;;;;;;5.72;5.22;;;;;;;;;;5114319;28;20016;-59
2021/08/22 01:14:35;;;;;;;5.75;5.25;;;;;;;;;;5114370;28;20465;-60
2021/08/22 01:17:01;;;;;;;4.90;3.72;;;;;;;;;;5114105;28;20027;-60
2021/08/22 01:19:52;;;;;;;5.05;4.60;;;;;;;;;;5114533;28;20358;-59
2021/08/22 01:22:18;;;;;;;3.92;3.60;;;;;;;;;;5113669;28;20442;-59
2021/08/22 01:24:44;;;;;;;5.05;4.10;;;;;;;;;;5114274;28;20054;-59
2021/08/22 01:27:09;;;;;;;4.82;4.43;;;;;;;;;;5113927;28;20052;-58
2021/08/22 01:29:38;;;;;;;4.88;4.05;;;;;;;;;;5114339;28;20099;-58
2021/08/22 01:32:03;;;;;;;4.43;3.75;;;;;;;;;;5095889;28;20020;-59
2021/08/22 01:34:28;;;;;;;4.53;4.13;;;;;;;;;;5114169;28;20019;-59
2021/08/22 01:36:55;;;;;;;5.10;4.60;;;;;;;;;;5113930;28;20381;-58
2021/08/22 01:39:20;;;;;;;4.40;3.85;;;;;;;;;;5113447;28;20019;-59
2021/08/22 01:41:48;;;;;;;5.50;4.22;;;;;;;;;;5113843;28;20015;-59
2021/08/22 01:44:17;;;;;;;6.10;4.72;;;;;;;;;;5114110;28;20023;-58
2021/08/22 01:46:42;;;;;;;4.95;4.55;;;;;;;;;;5113994;28;20047;-58
2021/08/22 01:49:08;;;;;;;7.38;5.28;;;;;;;;;;5113671;28;20081;-56
2021/08/22 01:51:34;;;;;;;4.88;4.20;;;;;;;;;;5113687;28;20408;-58
2021/08/22 01:54:01;;;;;;;5.43;4.93;;;;;;;;;;5112635;28;20020;-58
2021/08/22 01:56:27;;;;;;;4.88;4.47;;;;;;;;;;5113742;28;20597;-58
2021/08/22 01:58:52;;;;;;;5.07;4.68;;;;;;;;;;5113598;28;20026;-58
2021/08/22 02:01:18;;;;;;;5.20;4.70;;;;;;;;;;5113429;28;20019;-57
2021/08/22 02:03:48;;;;;;;5.50;5.00;;;;;;;;;;5113650;28;20069;-58
2021/08/22 02:06:19;;;;;;;5.53;4.80;;;;;;;;;;5112069;28;20020;-58
2021/08/22 02:08:47;;;;;;;5.50;5.00;;;;;;;;;;5112891;28;20531;-58
2021/08/22 02:11:21;;;;;;;5.70;5.10;;;;;;;;;;5113717;28;20445;-58
2021/08/22 02:13:46;;;;;;;5.10;4.60;;;;;;;;;;5095115;28;20016;-58
2021/08/22 02:16:15;;;;;;;6.43;5.40;;;;;;;;;;5113446;28;20428;-59
2021/08/22 02:18:41;;;;;;;5.47;4.97;;;;;;;;;;5112805;28;20053;-58
2021/08/22 02:21:06;;;;;;;5.75;5.05;;;;;;;;;;5113128;28;20106;-58
2021/08/22 02:23:32;;;;;;;6.43;5.82;;;;;;;;;;5112518;28;20111;-58
2021/08/22 02:25:57;;;;;;;6.75;5.35;;;;;;;;;;5113044;28;20026;-59
2021/08/22 02:28:23;;;;;;;6.38;5.78;;;;;;;;;;5112148;28;20043;-59
2021/08/22 02:30:50;;;;;;;5.47;4.97;;;;;;;;;;5113061;28;20015;-59
2021/08/22 02:33:15;;;;;;;4.50;4.10;;;;;;;;;;5112907;28;20066;-58
2021/08/22 02:35:40;;;;;;;5.70;4.50;;;;;;;;;;5112747;28;20039;-59
2021/08/22 02:38:06;;;;;;;5.55;4.88;;;;;;;;;;5112428;28;20101;-59
2021/08/22 02:40:31;;;;;;;6.53;5.20;;;;;;;;;;5112520;28;20016;-58
2021/08/22 02:42:56;;;;;;;4.22;3.83;;;;;;;;;;5112741;28;20023;-58
2021/08/22 02:45:21;;;;;;;4.68;4.28;;;;;;;;;;5112704;28;20472;-59
2021/08/22 02:47:46;;;;;;;4.88;4.47;;;;;;;;;;5112299;28;20024;-59
2021/08/22 02:50:12;;;;;;;3.85;3.55;;;;;;;;;;5112687;28;20024;-58
2021/08/22 02:52:37;;;;;;;3.92;3.47;;;;;;;;;;5112119;28;20045;-58
2021/08/22 02:55:02;;;;;;;3.63;3.33;;;;;;;;;;5112720;28;20103;-58
2021/08/22 02:57:28;;;;;;;4.53;3.53;;;;;;;;;;5112349;28;20024;-58
2021/08/22 02:59:53;;;;;;;3.55;3.25;;;;;;;;;;5112406;28;20470;-59
2021/08/22 03:02:18;;;;;;;4.07;3.67;;;;;;;;;;5112501;28;20373;-59
2021/08/22 03:04:43;;;;;;;3.42;3.13;;;;;;;;;;5112615;28;20028;-59
2021/08/22 03:07:08;;;;;;;3.50;3.20;;;;;;;;;;5112154;28;20081;-59
2021/08/22 03:09:34;;;;;;;3.70;3.35;;;;;;;;;;5112137;28;20020;-59
2021/08/22 03:11:59;;;;;;;4.32;3.47;;;;;;;;;;5112156;28;20012;-59
2021/08/22 03:14:24;;;;;;;3.88;3.47;;;;;;;;;;5112337;28;20051;-60
2021/08/22 03:16:49;;;;;;;3.95;3.58;;;;;;;;;;5112288;28;20054;-59
2021/08/22 03:19:15;;;;;;;3.50;3.20;;;;;;;;;;5112002;28;20388;-59
2021/08/22 03:21:42;;;;;;;5.03;4.00;;;;;;;;;;5112267;28;20037;-59
2021/08/22 03:24:07;;;;;;;4.13;3.72;;;;;;;;;;5111756;28;20016;-58
2021/08/22 03:26:33;;;;;;;5.70;4.03;;;;;;;;;;5112029;28;20030;-58
2021/08/22 03:28:58;;;;;;;3.97;3.47;;;;;;;;;;5111805;28;20077;-57
2021/08/22 03:31:23;;;;;;;4.55;3.38;;;;;;;;;;5112327;28;20031;-59
2021/08/22 03:33:48;;;;;;;3.33;3.03;;;;;;;;;;5112183;28;20024;-59
2021/08/22 03:36:14;;;;;;;4.45;3.75;;;;;;;;;;5112053;28;20023;-58
2021/08/22 03:38:39;;;;;;;3.35;3.10;;;;;;;;;;5112447;28;20036;-59
2021/08/22 03:41:04;;;;;;;3.70;3.20;;;;;;;;;;5115998;28;20024;-58
2021/08/22 03:43:29;;;;;;;3.40;3.10;;;;;;;;;;5115709;28;20035;-58
2021/08/22 03:45:54;;;;;;;3.45;2.92;;;;;;;;;;5116181;28;20028;-58
2021/08/22 03:48:20;;;;;;;3.28;2.97;;;;;;;;;;5115975;28;20424;-59
2021/08/22 03:50:45;;;;;;;3.20;2.90;;;;;;;;;;5116184;28;20076;-58
2021/08/22 03:53:10;;;;;;;3.40;3.13;;;;;;;;;;5115627;28;20397;-58
2021/08/22 03:55:35;;;;;;;3.33;2.85;;;;;;;;;;5116200;28;20016;-59
2021/08/22 03:58:01;;;;;;;3.95;3.40;;;;;;;;;;5115675;28;20024;-59
2021/08/22 04:00:26;;;;;;;3.60;2.85;;;;;;;;;;5116488;28;20508;-59
2021/08/22 04:02:51;;;;;;;3.45;3.00;;;;;;;;;;5115756;28;20474;-59
2021/08/22 04:05:16;;;;;;;4.03;3.20;;;;;;;;;;5115863;28;20278;-59
2021/08/22 04:07:48;;;;;;;2.75;2.55;;;;;;;;;;5115074;28;20479;-58
2021/08/22 04:10:13;;;;;;;2.85;2.65;;;;;;;;;;5115650;28;20023;-59
2021/08/22 04:12:38;;;;;;;3.15;2.85;;;;;;;;;;5115623;28;20068;-59
2021/08/22 04:15:04;;;;;;;3.10;2.90;;;;;;;;;;5115610;28;20026;-59
2021/08/22 04:17:29;;;;;;;3.58;2.70;;;;;;;;;;5115315;28;20031;-59
2021/08/22 04:19:54;;;;;;;2.88;2.58;;;;;;;;;;5115697;28;20028;-59
2021/08/22 04:22:20;;;;;;;3.72;3.20;;;;;;;;;;5115284;28;20378;-58
2021/08/22 04:24:45;;;;;;;3.95;2.85;;;;;;;;;;5096960;28;20027;-59
2021/08/22 04:27:10;;;;;;;3.03;2.72;;;;;;;;;;5115020;28;20040;-59
2021/08/22 04:29:39;;;;;;;4.18;3.00;;;;;;;;;;5115204;28;20390;-59
2021/08/22 04:32:05;;;;;;;5.47;5.00;;;;;;;;;;5115383;28;20047;-59
2021/08/22 04:34:30;;;;;;;6.85;6.15;;;;;;;;;;5115629;28;20051;-60
2021/08/22 04:36:55;;;;;;;6.47;5.88;;;;;;;;;;5115091;28;20058;-59
2021/08/22 04:39:20;;;;;;;6.57;5.97;;;;;;;;;;5114628;28;20363;-60
2021/08/22 04:41:46;;;;;;;6.47;5.80;;;;;;;;;;5114951;28;20034;-59
2021/08/22 04:44:11;;;;;;;8.50;6.18;;;;;;;;;;5115113;28;20027;-59
2021/08/22 04:46:37;;;;;;;6.30;5.80;;;;;;;;;;5114958;28;20106;-59
2021/08/22 04:49:02;;;;;;;6.70;6.10;;;;;;;;;;5114809;28;20015;-59
2021/08/22 04:51:27;;;;;;;7.30;6.60;;;;;;;;;;5114122;28;20110;-59
2021/08/22 04:53:52;;;;;;;7.43;6.78;;;;;;;;;;5114568;28;20015;-59
2021/08/22 04:56:18;;;;;;;7.45;6.75;;;;;;;;;;5114995;28;20121;-59
2021/08/22 04:58:43;;;;;;;6.50;5.90;;;;;;;;;;5114722;28;20103;-58
2021/08/22 05:01:08;;;;;;;7.57;6.85;;;;;;;;;;5115227;28;20028;-59
2021/08/22 05:03:33;;;;;;;6.82;6.18;;;;;;;;;;5114824;28;20022;-59
2021/08/22 05:05:58;;;;;;;5.43;5.03;;;;;;;;;;5114545;28;20495;-59
2021/08/22 05:08:24;;;;;;;7.18;6.50;;;;;;;;;;5114238;28;20080;-59
2021/08/22 05:10:49;;;;;;;6.25;5.65;;;;;;;;;;5114445;28;20099;-59
2021/08/22 05:13:14;;;;;;;6.38;5.85;;;;;;;;;;5114564;28;20116;-59
2021/08/22 05:15:41;;;;;;;5.68;5.10;;;;;;;;;;5114585;28;20098;-59
2021/08/22 05:18:06;;;;;;;6.15;5.55;;;;;;;;;;5114206;28;20110;-58
2021/08/22 05:20:31;;;;;;;5.70;5.20;;;;;;;;;;5114514;28;20090;-59
2021/08/22 05:22:56;;;;;;;4.72;4.32;;;;;;;;;;5113961;28;20152;-59
2021/08/22 05:25:21;;;;;;;5.75;5.10;;;;;;;;;;5114054;28;20062;-58
2021/08/22 05:27:47;;;;;;;4.13;3.83;;;;;;;;;;5113762;28;20130;-58
2021/08/22 05:30:12;;;;;;;4.60;4.20;;;;;;;;;;5114545;28;20026;-58
2021/08/22 05:32:37;;;;;;;5.22;4.80;;;;;;;;;;5114150;28;20250;-58
2021/08/22 05:35:02;;;;;;;4.72;4.32;;;;;;;;;;5114721;28;20101;-57
2021/08/22 05:37:29;;;;;;;3.63;3.33;;;;;;;;;;5113714;28;20036;-56
2021/08/22 05:39:55;;;;;;;3.90;3.60;;;;;;;;;;5113356;28;20116;-58
2021/08/22 05:42:20;;;;;;;5.15;4.05;;;;;;;;;;5095665;28;20098;-59
2021/08/22 05:44:45;;;;;;;5.17;3.73;;;;;;;;;;5114074;28;20023;-59
2021/08/22 05:47:10;;;;;;;4.88;3.22;;;;;;;;;;5113684;28;20277;-58
2021/08/22 05:49:39;;;;;;;3.75;3.38;;;;;;;;;;5113654;28;20020;-59
2021/08/22 05:52:05;;;;;;;4.10;3.70;;;;;;;;;;5114034;28;20016;-58
2021/08/22 05:54:30;;;;;;;4.55;4.15;;;;;;;;;;5113305;28;20020;-58
2021/08/22 05:56:55;;;;;;;4.35;3.90;;;;;;;;;;5113981;28;20042;-59
2021/08/22 05:59:21;;;;;;;4.33;3.60;;;;;;;;;;5113276;28;20470;-58
2021/08/22 06:01:46;;;;;;;3.80;3.40;;;;;;;;;;5113185;28;20342;-59
2021/08/22 06:04:11;;;;;;;4.65;3.40;;;;;;;;;;5111647;28;20271;-59
2021/08/22 06:06:38;;;;;;;3.13;2.85;;;;;;;;;;5112994;28;20529;-58
2021/08/22 06:09:03;;;;;;;3.55;2.83;;;;;;;;;;5112844;28;20024;-58
2021/08/22 06:11:29;;;;;;;2.90;2.60;;;;;;;;;;5113094;28;20023;-58
2021/08/22 06:13:54;;;;;;;2.72;2.47;;;;;;;;;;5113021;28;20593;-59
2021/08/22 06:16:21;;;;;;;3.27;2.33;;;;;;;;;;5113155;28;20031;-59
2021/08/22 06:18:46;;;;;;;3.10;2.80;;;;;;;;;;5113053;28;20825;-59
2021/08/22 06:21:11;;;;;;;4.97;2.33;;;;;;;;;;5113218;28;20016;-59
2021/08/22 06:23:36;;;;;;;2.73;2.23;;;;;;;;;;5112649;28;20257;-59
2021/08/22 06:26:01;;;;;;;2.60;2.38;;;;;;;;;;5113130;28;20297;-59
2021/08/22 06:28:27;;;;;;;2.83;2.20;;;;;;;;;;5112842;28;20047;-60
2021/08/22 06:30:52;;;;;;;2.77;2.27;;;;;;;;;;5113302;28;20016;-59
2021/08/22 06:33:17;;;;;;;2.67;2.47;;;;;;;;;;5112902;28;20588;-58
2021/08/22 06:35:42;;;;;;;2.65;2.45;;;;;;;;;;5112896;28;20082;-58
2021/08/22 06:38:07;;;;;;;2.80;2.42;;;;;;;;;;5112224;28;20016;-59
2021/08/22 06:40:33;;;;;;;2.47;2.28;;;;;;;;;;5112682;28;20068;-59
2021/08/22 06:42:58;;;;;;;3.87;2.50;;;;;;;;;;5112760;28;20027;-59
2021/08/22 06:45:23;;;;;;;2.40;2.30;;;;;;;;;;5112818;28;20249;-59
2021/08/22 06:47:51;;;;;;;3.80;2.25;;;;;;;;;;5112390;28;20023;-58
2021/08/22 06:50:16;;;;;;;2.53;2.33;;;;;;;;;;5112702;28;20484;-59
2021/08/22 06:52:42;;;;;;;2.77;2.00;;;;;;;;;;5094087;28;20015;-59
2021/08/22 06:55:07;;;;;;;3.10;2.27;;;;;;;;;;5112414;28;20297;-59
2021/08/22 06:57:32;;;;;;;2.30;2.10;;;;;;;;;;5112448;28;20291;-58
2021/08/22 06:59:57;;;;;;;1.87;1.70;;;;;;;;;;5112381;28;20047;-59
2021/08/22 07:02:22;;;;;;;2.22;2.10;;;;;;;;;;5113174;28;20654;-58
2021/08/22 07:04:48;;;;;;;2.38;2.15;;;;;;;;;;5112489;28;20423;-58
2021/08/22 07:07:13;;;;;;;2.60;2.13;;;;;;;;;;5112553;28;20472;-59
2021/08/22 07:09:38;;;;;;;3.73;2.03;;;;;;;;;;5111954;28;20011;-59
2021/08/22 07:12:04;;;;;;;2.78;2.10;;;;;;;;;;5112528;28;20253;-59
2021/08/22 07:14:29;;;;;;;2.67;2.13;;;;;;;;;;5093773;28;20374;-59
2021/08/22 07:16:54;;;;;;;3.03;2.50;;;;;;;;;;5112396;28;20030;-59
2021/08/22 07:19:20;;;;;;;3.20;1.90;;;;;;;;;;5112022;28;20646;-59
2021/08/22 07:21:45;;;;;;;2.30;2.17;;;;;;;;;;5112082;28;20470;-59
2021/08/22 07:24:10;;;;;;;2.40;2.00;;;;;;;;;;5093341;28;20542;-59
2021/08/22 07:26:35;;;;;;;2.33;2.13;;;;;;;;;;5111998;28;20026;-59
2021/08/22 07:29:02;;;;;;;2.10;2.00;;;;;;;;;;5112063;28;20266;-58
2021/08/22 07:31:27;;;;;;;2.50;2.30;;;;;;;;;;5112355;28;20250;-58
2021/08/22 07:33:52;;;;;;;2.50;2.30;;;;;;;;;;5112752;28;20036;-58
2021/08/22 07:36:17;;;;;;;2.87;2.27;;;;;;;;;;5111979;28;20754;-59
2021/08/22 07:38:42;;;;;;;3.73;2.93;;;;;;;;;;5111701;28;20269;-59
2021/08/22 07:41:08;;;;;;;4.77;2.90;;;;;;;;;;5112042;28;20265;-58
2021/08/22 07:43:33;;;;;;;5.00;2.72;;;;;;;;;;5112012;28;20689;-59
2021/08/22 07:45:58;;;;;;;2.55;2.30;;;;;;;;;;5111899;28;20448;-59
2021/08/22 07:48:24;;;;;;;3.83;2.45;;;;;;;;;;5111873;28;20026;-59
2021/08/22 07:50:49;;;;;;;2.67;2.47;;;;;;;;;;5112049;28;20466;-59
2021/08/22 07:53:16;;;;;;;3.67;2.92;;;;;;;;;;5111222;28;20409;-59
2021/08/22 07:55:41;;;;;;;2.70;2.50;;;;;;;;;;5111390;28;20026;-58
2021/08/22 07:58:06;;;;;;;3.08;2.78;;;;;;;;;;5111837;28;20024;-59
2021/08/22 08:00:32;;;;;;;2.58;2.33;;;;;;;;;;5111861;28;20118;-59
2021/08/22 08:02:57;;;;;;;2.75;2.20;;;;;;;;;;5111960;28;20023;-59
2021/08/22 08:05:22;;;;;;;3.00;2.50;;;;;;;;;;5111417;28;20091;-60
2021/08/22 08:07:47;;;;;;;2.47;2.27;;;;;;;;;;5111164;28;20285;-59
2021/08/22 08:10:12;;;;;;;3.43;2.20;;;;;;;;;;5093298;28;20261;-59
2021/08/22 08:12:38;;;;;;;2.60;2.40;;;;;;;;;;5111695;28;20608;-58
2021/08/22 08:15:03;;;;;;;3.22;2.63;;;;;;;;;;5111881;28;20366;-59
2021/08/22 08:17:29;;;;;;;2.97;2.65;;;;;;;;;;5111701;28;20031;-58
2021/08/22 08:19:54;;;;;;;2.80;2.40;;;;;;;;;;5111240;28;20019;-59
2021/08/22 08:22:19;;;;;;;2.78;2.58;;;;;;;;;;5111201;28;20077;-59
2021/08/22 08:24:44;;;;;;;2.50;2.30;;;;;;;;;;5111111;28;20137;-59
2021/08/22 08:27:10;;;;;;;3.10;2.70;;;;;;;;;;5114493;28;20077;-59
2021/08/22 08:29:35;;;;;;;3.35;2.80;;;;;;;;;;5115233;28;20020;-60
2021/08/22 08:32:00;;;;;;;3.38;2.88;;;;;;;;;;5115122;28;20016;-60
2021/08/22 08:34:25;;;;;;;2.70;2.50;;;;;;;;;;5115354;28;20030;-58
2021/08/22 08:36:51;;;;;;;2.75;2.45;;;;;;;;;;5114863;28;20024;-58
2021/08/22 08:39:16;;;;;;;2.65;2.45;;;;;;;;;;5114750;28;20031;-59
2021/08/22 08:41:41;;;;;;;2.88;2.53;;;;;;;;;;5114899;28;20026;-59
2021/08/22 08:44:06;;;;;;;2.60;2.40;;;;;;;;;;5115130;28;20015;-59
2021/08/22 08:46:44;;;;;;;2.70;2.50;;;;;;;;;;5114612;28;20281;-59
2021/08/22 08:49:17;;;;;;;2.75;2.30;;;;;;;;;;5114661;28;20018;-59
2021/08/22 08:52:01;;;;;;;2.67;2.47;;;;;;;;;;5115397;28;20011;-59
2021/08/22 08:54:29;;;;;;;3.33;2.42;;;;;;;;;;5114537;28;20023;-59
2021/08/22 08:56:55;;;;;;;2.55;2.33;;;;;;;;;;5114877;28;20073;-59
2021/08/22 08:59:21;;;;;;;2.60;2.20;;;;;;;;;;5114368;28;20027;-59
2021/08/22 09:01:46;;;;;;;2.28;2.08;;;;;;;;;;5114999;28;20049;-56
2021/08/22 09:04:26;;;;;;;1.52;1.42;;;;;;;;;;5114880;28;20531;-57
2021/08/22 09:06:57;;;;;;;2.92;2.05;;;;;;;;;;5114212;28;20024;-56
2021/08/22 09:09:41;;;;;;;2.88;1.80;;;;;;;;;;5113852;28;20015;-57
2021/08/22 09:12:24;;;;;;;2.30;2.10;;;;;;;;;;5114209;28;20019;-57
2021/08/22 09:15:08;;;;;;;2.97;2.20;;;;;;;;;;5114394;28;20351;-57
2021/08/22 09:17:52;;;;;;;2.40;2.20;;;;;;;;;;5114410;28;20024;-58
2021/08/22 09:20:39;;;;;;;2.80;1.98;;;;;;;;;;5114405;28;20024;-60
2021/08/22 09:23:23;;;;;;;2.58;1.92;;;;;;;;;;5113825;28;20023;-60
2021/08/22 09:26:07;;;;;;;2.20;1.88;;;;;;;;;;5114128;28;20110;-58
2021/08/22 09:28:32;;;;;;;2.10;1.88;;;;;;;;;;5113786;28;20082;-58
2021/08/22 09:31:16;;;;;;;2.23;1.93;;;;;;;;;;5096434;28;20097;-58
2021/08/22 09:34:00;;;;;;;2.92;1.90;;;;;;;;;;5108706;28;20348;-59
2021/08/22 09:36:25;;;;;;;2.88;1.75;;;;;;;;;;5113668;28;20055;-59
2021/08/22 09:38:50;;;;;;;2.85;2.42;;;;;;;;;;5113552;28;20051;-59
2021/08/22 09:41:34;;;;;;;2.20;2.00;;;;;;;;;;5114000;28;20016;-59
2021/08/22 09:44:02;;;;;;;2.17;1.77;;;;;;;;;;5113769;28;20250;-58
2021/08/22 09:46:59;;;;;;;1.95;1.85;;;;;;;;;;5113803;28;20016;-58
2021/08/22 09:49:43;;;;;;;1.70;1.60;;;;;;;;;;5113521;28;20493;-59
2021/08/22 09:52:15;;;;;;;1.83;1.70;;;;;;;;;;5113975;28;20023;-60
2021/08/22 09:54:41;;;;;;;2.15;1.90;;;;;;;;;;5113282;28;20453;-59
2021/08/22 09:57:25;;;;;;;1.77;1.67;;;;;;;;;;5113845;28;20055;-59
2021/08/22 10:00:08;;;;;;;3.70;1.80;;;;;;;;;;5093121;28;20073;-59
2021/08/22 10:02:52;;;;;;;1.58;1.48;;;;;;;;;;5110446;28;20027;-58
2021/08/22 10:05:26;;;;;;;2.60;2.17;;;;;;;;;;5113541;28;20019;-58
2021/08/22 10:08:03;;;;;;;2.40;2.20;;;;;;;;;;5112916;28;20015;-57
2021/08/22 10:10:55;;;;;;;2.78;2.05;;;;;;;;;;5112735;28;20064;-58
2021/08/22 10:13:20;;;;;;;2.55;2.35;;;;;;;;;;5109951;28;20042;-59
2021/08/22 10:15:46;;;;;;;2.67;2.13;;;;;;;;;;5113174;28;20019;-59
2021/08/22 10:18:18;;;;;;;1.80;1.70;;;;;;;;;;5113081;28;20253;-59
2021/08/22 10:20:44;;;;;;;2.75;1.90;;;;;;;;;;5113364;28;20461;-59
2021/08/22 10:23:27;;;;;;;1.55;1.33;;;;;;;;;;5112786;28;20064;-57
2021/08/22 10:25:55;;;;;;;2.25;2.05;;;;;;;;;;5113163;28;20068;-58
2021/08/22 10:28:40;;;;;;;2.80;2.60;;;;;;;;;;5112672;28;20051;-58
2021/08/22 10:31:05;;;;;;;;;;;;;;;;;;5113085;28;20023;-59
2021/08/22 10:33:30;;;;;;;2.20;2.00;;;;;;;;;;5112868;28;19910;-59
2021/08/22 10:36:15;;;;;;;2.03;1.83;;;;;;;;;;5112990;28;20385;-59
2021/08/22 10:38:40;;;;;;;;;;;;;;;;;;5094439;28;20279;-58
2021/08/22 10:41:25;;;;;;;2.42;2.22;;;;;;;;;;5112575;28;19998;-59
2021/08/22 10:43:51;;;;;;;2.90;2.38;;;;;;;;;;5112625;28;20417;-59
2021/08/22 10:46:36;;;;;;;2.78;2.30;;;;;;;;;;5112794;28;20020;-59
2021/08/22 10:49:01;;;;;;;2.47;2.28;;;;;;;;;;5111851;28;20019;-60
2021/08/22 10:51:26;;;;;;;2.80;2.15;;;;;;;;;;5112835;28;20174;-60
2021/08/22 10:54:11;;;;;;;2.83;2.63;;;;;;;;;;5094062;28;20086;-59
2021/08/22 10:56:37;;;;;;;2.22;2.03;;;;;;;;;;5112574;28;20020;-59
2021/08/22 10:59:04;;;;;;;2.00;1.90;;;;;;;;;;5112292;28;20112;-59
2021/08/22 11:01:34;;;;;;;2.38;2.28;;;;;;;;;;5112417;28;20038;-60
2021/08/22 11:04:03;;;;;;;2.63;2.42;;;;;;;;;;5112404;28;20031;-60
2021/08/22 11:06:28;;;;;;;2.95;2.75;;;;;;;;;;5112538;28;20037;-60
2021/08/22 11:08:53;;;;;;;2.42;2.22;;;;;;;;;;5111887;28;20102;-60
2021/08/22 11:11:18;;;;;;;2.60;2.40;;;;;;;;;;5112183;28;20027;-58
2021/08/22 11:13:57;;;;;;;2.77;2.17;;;;;;;;;;5112424;28;20262;-59
2021/08/22 11:16:45;;;;;;;3.08;2.50;;;;;;;;;;5112355;28;20702;-59
2021/08/22 11:19:11;;;;;;;2.80;2.08;;;;;;;;;;5111916;28;20358;-59
2021/08/22 11:21:36;;;;;;;2.70;2.50;;;;;;;;;;5112417;28;20020;-59
2021/08/22 11:24:01;;;;;;;2.78;2.58;;;;;;;;;;5111774;28;20436;-60
2021/08/22 11:26:27;;;;;;;2.38;2.17;;;;;;;;;;5112126;28;20265;-59
2021/08/22 11:28:56;;;;;;;4.43;2.80;;;;;;;;;;5111988;28;20059;-59
2021/08/22 11:31:21;;;;;;;3.03;2.80;;;;;;;;;;5111914;28;20076;-59
2021/08/22 11:33:46;;;;;;;2.70;2.50;;;;;;;;;;5112141;28;20016;-59
2021/08/22 11:36:11;;;;;;;2.87;2.67;;;;;;;;;;5112020;28;20462;-59
2021/08/22 11:38:36;;;;;;;2.60;2.40;;;;;;;;;;5111700;28;20265;-60
2021/08/22 11:41:03;;;;;;;2.47;2.00;;;;;;;;;;5112259;28;20262;-61
2021/08/22 11:43:28;;;;;;;1.75;1.65;;;;;;;;;;5111892;28;20627;-59
2021/08/22 11:45:53;;;;;;;2.55;2.35;;;;;;;;;;5112046;28;20016;-58
2021/08/22 11:48:20;;;;;;;2.35;2.25;;;;;;;;;;5111607;28;20087;-58
2021/08/22 11:50:45;;;;;;;2.53;2.30;;;;;;;;;;5112249;28;20382;-59
2021/08/22 11:53:11;;;;;;;2.50;2.30;;;;;;;;;;5111473;28;20012;-59
2021/08/22 11:55:37;;;;;;;3.40;2.80;;;;;;;;;;5111992;28;20022;-59
2021/08/22 11:58:07;;;;;;;3.10;2.80;;;;;;;;;;5112260;28;20012;-59
2021/08/22 12:00:33;;;;;;;1.95;1.83;;;;;;;;;;5093872;28;20020;-59
2021/08/22 12:03:00;;;;;;;2.58;2.38;;;;;;;;;;5115854;28;20081;-59
2021/08/22 12:05:26;;;;;;;3.03;2.63;;;;;;;;;;5116032;28;20016;-59
2021/08/22 12:08:08;;;;;;;2.30;2.10;;;;;;;;;;5115560;28;20020;-59
2021/08/22 12:10:34;;;;;;;2.80;2.60;;;;;;;;;;5115700;28;20020;-59
2021/08/22 12:12:59;;;;;;;2.55;2.35;;;;;;;;;;5115874;28;20016;-59
2021/08/22 12:15:35;;;;;;;3.10;2.50;;;;;;;;;;5115793;28;20015;-59
2021/08/22 12:18:26;;;;;;;2.40;2.30;;;;;;;;;;5115651;28;20039;-59
2021/08/22 12:21:14;;;;;;;3.40;2.67;;;;;;;;;;5115655;28;20027;-59
2021/08/22 12:23:40;;;;;;;2.60;2.13;;;;;;;;;;5115183;28;20019;-59
2021/08/22 12:26:25;;;;;;;2.50;2.35;;;;;;;;;;5115507;28;20485;-59
2021/08/22 12:28:52;;;;;;;2.72;2.53;;;;;;;;;;5114536;28;20044;-59
2021/08/22 12:31:17;;;;;;;2.78;2.58;;;;;;;;;;5115332;28;20045;-59
2021/08/22 12:33:44;;;;;;;3.03;2.83;;;;;;;;;;5115086;28;20024;-59
2021/08/22 12:36:14;;;;;;;4.53;2.88;;;;;;;;;;5114860;28;20024;-59
2021/08/22 12:38:41;;;;;;;3.25;2.95;;;;;;;;;;5114734;28;20031;-59
2021/08/22 12:41:24;;;;;;;2.80;2.60;;;;;;;;;;5103248;28;20032;-59
2021/08/22 12:43:50;;;;;;;3.03;2.72;;;;;;;;;;5094486;28;20024;-59
2021/08/22 12:46:15;;;;;;;3.53;2.65;;;;;;;;;;5098689;28;20478;-59
2021/08/22 12:48:41;;;;;;;2.88;2.67;;;;;;;;;;5114562;28;20486;-60
2021/08/22 12:51:09;;;;;;;3.15;2.83;;;;;;;;;;5114913;28;20061;-59
2021/08/22 12:53:35;;;;;;;3.17;2.33;;;;;;;;;;5114230;28;20110;-59
2021/08/22 12:56:00;;;;;;;3.05;2.85;;;;;;;;;;5114793;28;20099;-59
2021/08/22 12:58:25;;;;;;;3.47;3.17;;;;;;;;;;5114572;28;20016;-59
2021/08/22 13:00:50;;;;;;;2.90;2.60;;;;;;;;;;5114550;28;20023;-59
2021/08/22 13:03:16;;;;;;;2.90;2.60;;;;;;;;;;5114683;28;20264;-59
2021/08/22 13:05:41;;;;;;;3.00;2.80;;;;;;;;;;5114473;28;20019;-59
2021/08/22 13:08:06;;;;;;;2.73;2.53;;;;;;;;;;5113977;28;20110;-59
2021/08/22 13:10:31;;;;;;;3.63;3.00;;;;;;;;;;5111848;28;20269;-59
2021/08/22 13:12:56;;;;;;;2.73;2.53;;;;;;;;;;5110981;28;20273;-59
2021/08/22 13:15:21;;;;;;;2.90;2.70;;;;;;;;;;5113929;28;20258;-59
2021/08/22 13:17:47;;;;;;;3.37;3.07;;;;;;;;;;5110086;28;20270;-59
2021/08/22 13:20:12;;;;;;;3.47;3.17;;;;;;;;;;5109743;28;20779;-58
2021/08/22 13:22:37;;;;;;;3.03;2.83;;;;;;;;;;5113711;28;20112;-59
2021/08/22 13:25:04;;;;;;;3.80;3.40;;;;;;;;;;5113789;28;20030;-60
2021/08/22 13:27:29;;;;;;;3.58;3.13;;;;;;;;;;5109451;28;20396;-59
2021/08/22 13:29:54;;;;;;;2.90;2.70;;;;;;;;;;5111888;27;20725;-60
2021/08/22 13:32:19;;;;;;;3.50;3.20;;;;;;;;;;5104510;28;20274;-60
2021/08/22 13:34:45;;;;;;;3.07;2.70;;;;;;;;;;5110954;28;20016;-60
2021/08/22 13:37:10;;;;;;;2.95;2.70;;;;;;;;;;5113120;28;20299;-59
2021/08/22 13:39:35;;;;;;;2.80;2.60;;;;;;;;;;5113268;28;20027;-59
2021/08/22 13:42:00;;;;;;;3.33;2.83;;;;;;;;;;5113165;28;20666;-59
2021/08/22 13:44:25;;;;;;;3.10;2.80;;;;;;;;;;5113333;28;20024;-59
2021/08/22 13:46:51;;;;;;;3.67;2.60;;;;;;;;;;5113317;28;20316;-59
2021/08/22 13:49:16;;;;;;;2.78;2.58;;;;;;;;;;5109949;28;20015;-59
2021/08/22 13:51:41;;;;;;;3.30;3.00;;;;;;;;;;5109838;28;20044;-59
2021/08/22 13:54:10;;;;;;;3.00;2.80;;;;;;;;;;5112361;28;20065;-58
2021/08/22 13:56:35;;;;;;;2.90;2.70;;;;;;;;;;5113037;28;20025;-60
2021/08/22 13:59:02;;;;;;;3.07;2.83;;;;;;;;;;5102699;28;20083;-59
2021/08/22 14:01:27;;;;;;;2.97;2.67;;;;;;;;;;5112918;28;20770;-60
2021/08/22 14:03:53;;;;;;;3.47;3.20;;;;;;;;;;5112800;28;20031;-59
2021/08/22 14:06:18;;;;;;;3.30;2.88;;;;;;;;;;5113410;28;20016;-60
2021/08/22 14:08:43;;;;;;;2.97;2.75;;;;;;;;;;5110439;27;20042;-59
2021/08/22 14:11:09;;;;;;;3.07;2.80;;;;;;;;;;5110758;28;20049;-59
2021/08/22 14:13:34;;;;;;;3.42;3.13;;;;;;;;;;5112590;28;20377;-60
2021/08/22 14:15:59;;;;;;;3.05;2.85;;;;;;;;;;5112930;28;20023;-59
2021/08/22 14:18:24;;;;;;;3.33;3.03;;;;;;;;;;5112682;28;20450;-59
2021/08/22 14:20:50;;;;;;;3.03;2.72;;;;;;;;;;5113345;28;20288;-59
2021/08/22 14:23:15;;;;;;;3.70;3.40;;;;;;;;;;5111575;28;20057;-59
2021/08/22 14:25:40;;;;;;;3.17;2.90;;;;;;;;;;5112508;28;20314;-59
2021/08/22 14:28:05;;;;;;;3.03;2.83;;;;;;;;;;5090183;28;20097;-59
2021/08/22 14:30:32;;;;;;;2.90;2.70;;;;;;;;;;5078153;28;20082;-59
2021/08/22 14:32:57;;;;;;;3.30;2.80;;;;;;;;;;5073784;28;20048;-60
2021/08/22 14:35:22;;;;;;;3.10;2.90;;;;;;;;;;5071882;28;20020;-59
2021/08/22 14:37:47;;;;;;;2.97;2.67;;;;;;;;;;5072034;28;20320;-59
2021/08/22 14:40:12;;;;;;;2.97;2.78;;;;;;;;;;5071652;28;20263;-59
2021/08/22 14:42:38;;;;;;;2.53;2.28;;;;;;;;;;5072031;28;20066;-56
2021/08/22 14:45:04;;;;;;;2.83;2.00;;;;;;;;;;5070059;28;20028;-59